sensor_id;sensor_type;location;lat;lon;timestamp;pressure;altitude;pressure_sealevel;temperature;humidity
21902;BME280;11115;46.038;14.612;2023-01-23T10:22:24;98930.22;;;3.04;100.00
21902;BME280;11115;46.038;14.612;2023-01-23T10:25:24;98940.91;;;3.05;100.00
21902;BME280;11115;46.038;14.612;2023-01-23T10:28:45;98941.16;;;3.04;100.00
21902;BME280;11115;46.038;14.612;2023-01-23T10:31:34;98951.03;;;3.05;100.00
21902;BME280;11115;46.038;14.612;2023-01-23T10:34:31;98948.47;;;3.15;100.00
21902;BME280;11115;46.038;14.612;2023-01-23T10:37:25;98959.66;;;3.14;100.00
21902;BME280;11115;46.038;14.612;2023-01-23T10:40:11;98950.44;;;3.20;100.00
21902;BME280;11115;46.038;14.612;2023-01-23T10:42:44;98961.25;;;3.10;100.00
21902;BME280;11115;46.038;14.612;2023-01-23T10:45:23;98958.00;;;3.13;100.00
21902;BME280;11115;46.038;14.612;2023-01-23T10:47:55;98968.19;;;3.17;100.00
21902;BME280;11115;46.038;14.612;2023-01-23T10:50:36;98966.59;;;3.04;100.00
21902;BME280;11115;46.038;14.612;2023-01-23T10:53:31;98970.00;;;2.95;100.00
21902;BME280;11115;46.038;14.612;2023-01-23T10:56:00;98973.97;;;2.87;100.00
21902;BME280;11115;46.038;14.612;2023-01-23T11:02:17;98966.44;;;2.78;100.00
21902;BME280;11115;46.038;14.612;2023-01-23T11:06:16;98973.38;;;2.85;100.00
21902;BME280;11115;46.038;14.612;2023-01-23T11:18:02;98856.81;;;2.12;100.00
21902;BME280;11115;46.038;14.612;2023-01-23T11:20:54;98968.91;;;2.79;100.00
21902;BME280;11115;46.038;14.612;2023-01-23T11:23:26;98973.22;;;2.75;100.00
21902;BME280;11115;46.038;14.612;2023-01-23T11:25:58;98968.41;;;2.82;100.00
21902;BME280;11115;46.038;14.612;2023-01-23T11:28:33;98966.09;;;2.74;100.00
21902;BME280;11115;46.038;14.612;2023-01-23T11:32:22;98967.84;;;2.80;100.00
21902;BME280;11115;46.038;14.612;2023-01-23T11:37:36;98963.75;;;2.66;100.00
21902;BME280;11115;46.038;14.612;2023-01-23T11:40:11;98978.00;;;2.85;100.00
21902;BME280;11115;46.038;14.612;2023-01-23T11:42:49;98980.88;;;2.90;100.00
21902;BME280;11115;46.038;14.612;2023-01-23T11:45:32;98987.16;;;2.90;100.00
21902;BME280;11115;46.038;14.612;2023-01-23T11:51:25;98977.53;;;2.88;100.00
21902;BME280;11115;46.038;14.612;2023-01-23T11:54:17;98982.50;;;2.91;100.00
21902;BME280;11115;46.038;14.612;2023-01-23T11:57:02;98984.19;;;2.63;100.00
21902;BME280;11115;46.038;14.612;2023-01-23T12:05:29;98991.97;;;2.55;100.00
21902;BME280;11115;46.038;14.612;2023-01-23T12:08:23;99002.13;;;2.71;100.00
21902;BME280;11115;46.038;14.612;2023-01-23T12:11:16;99004.28;;;2.86;100.00
21902;BME280;11115;46.038;14.612;2023-01-23T12:26:13;99032.72;;;2.44;100.00
21902;BME280;11115;46.038;14.612;2023-01-23T12:31:45;65212.09;;;-144.87;100.00
21902;BME280;11115;46.038;14.612;2023-01-23T12:34:30;65212.09;;;-144.87;100.00
21902;BME280;11115;46.038;14.612;2023-01-23T12:40:00;65212.09;;;-144.87;100.00
21902;BME280;11115;46.038;14.612;2023-01-23T12:42:46;65212.09;;;-144.87;100.00
21902;BME280;11115;46.038;14.612;2023-01-23T12:50:50;65212.09;;;-144.87;100.00
21902;BME280;11115;46.038;14.612;2023-01-23T12:53:20;65212.09;;;-144.87;100.00
21902;BME280;11115;46.038;14.612;2023-01-23T12:56:03;65212.09;;;-144.87;100.00
21902;BME280;11115;46.038;14.612;2023-01-23T12:58:36;65212.09;;;-144.87;100.00
21902;BME280;11115;46.038;14.612;2023-01-23T13:01:23;65212.09;;;-144.87;100.00
21902;BME280;11115;46.038;14.612;2023-01-23T13:06:49;65212.09;;;-144.87;100.00
21902;BME280;11115;46.038;14.612;2023-01-23T13:12:22;65212.09;;;-144.87;100.00
21902;BME280;11115;46.038;14.612;2023-01-23T13:14:52;65212.09;;;-144.87;100.00
21902;BME280;11115;46.038;14.612;2023-01-23T13:17:50;65212.09;;;-144.87;100.00
21902;BME280;11115;46.038;14.612;2023-01-23T13:21:13;65212.09;;;-144.87;100.00
21902;BME280;11115;46.038;14.612;2023-01-23T13:23:33;65212.09;;;-144.87;100.00
21902;BME280;11115;46.038;14.612;2023-01-23T13:28:46;65212.09;;;-144.87;100.00
21902;BME280;11115;46.038;14.612;2023-01-23T13:31:44;65212.09;;;-144.87;100.00
21902;BME280;11115;46.038;14.612;2023-01-23T13:36:47;65212.09;;;-144.87;100.00
21902;BME280;11115;46.038;14.612;2023-01-23T13:41:44;65212.09;;;-144.87;100.00
21902;BME280;11115;46.038;14.612;2023-01-23T13:50:25;65212.09;;;-144.87;100.00
21902;BME280;11115;46.038;14.612;2023-01-23T13:53:17;65212.09;;;-144.87;100.00
21902;BME280;11115;46.038;14.612;2023-01-23T13:56:19;65212.09;;;-144.87;100.00
21902;BME280;11115;46.038;14.612;2023-01-23T13:59:34;65212.09;;;-144.87;100.00
21902;BME280;11115;46.038;14.612;2023-01-23T14:05:31;65212.09;;;-144.87;100.00
21902;BME280;11115;46.038;14.612;2023-01-23T14:08:17;65212.09;;;-144.87;100.00
21902;BME280;11115;46.038;14.612;2023-01-23T14:11:15;65212.09;;;-144.87;100.00
21902;BME280;11115;46.038;14.612;2023-01-23T14:14:00;65212.09;;;-144.87;100.00
21902;BME280;11115;46.038;14.612;2023-01-23T14:16:57;65212.09;;;-144.87;100.00
21902;BME280;11115;46.038;14.612;2023-01-23T14:20:00;65212.09;;;-144.87;100.00
21902;BME280;11115;46.038;14.612;2023-01-23T14:22:44;65212.09;;;-144.87;100.00
21902;BME280;11115;46.038;14.612;2023-01-23T14:25:16;65212.09;;;-144.87;100.00
21902;BME280;11115;46.038;14.612;2023-01-23T14:27:45;65212.09;;;-144.87;100.00
21902;BME280;11115;46.038;14.612;2023-01-23T14:30:24;65212.09;;;-144.87;100.00
21902;BME280;11115;46.038;14.612;2023-01-23T14:32:54;65212.09;;;-144.87;100.00
21902;BME280;11115;46.038;14.612;2023-01-23T14:35:29;65212.09;;;-144.87;100.00
21902;BME280;11115;46.038;14.612;2023-01-23T14:37:59;65212.09;;;-144.87;100.00
21902;BME280;11115;46.038;14.612;2023-01-23T14:40:28;65212.09;;;-144.87;100.00
21902;BME280;11115;46.038;14.612;2023-01-23T14:43:22;65212.09;;;-144.87;100.00
21902;BME280;11115;46.038;14.612;2023-01-23T14:46:06;65212.09;;;-144.87;100.00
21902;BME280;11115;46.038;14.612;2023-01-23T14:48:41;65212.09;;;-144.87;100.00
21902;BME280;11115;46.038;14.612;2023-01-23T14:51:20;65212.09;;;-144.87;100.00
21902;BME280;11115;46.038;14.612;2023-01-23T14:56:25;65212.09;;;-144.87;100.00
21902;BME280;11115;46.038;14.612;2023-01-23T14:58:56;65212.09;;;-144.87;100.00
21902;BME280;11115;46.038;14.612;2023-01-23T15:01:26;65212.09;;;-144.87;100.00
21902;BME280;11115;46.038;14.612;2023-01-23T15:03:57;65212.09;;;-144.87;100.00
21902;BME280;11115;46.038;14.612;2023-01-23T15:06:26;65212.09;;;-144.87;100.00
21902;BME280;11115;46.038;14.612;2023-01-23T15:09:04;65212.09;;;-144.87;100.00
21902;BME280;11115;46.038;14.612;2023-01-23T15:11:33;65212.09;;;-144.87;100.00
21902;BME280;11115;46.038;14.612;2023-01-23T15:14:01;65212.09;;;-144.87;100.00
21902;BME280;11115;46.038;14.612;2023-01-23T15:16:38;65212.09;;;-144.87;100.00
21902;BME280;11115;46.038;14.612;2023-01-23T15:19:19;65212.09;;;-144.87;100.00
21902;BME280;11115;46.038;14.612;2023-01-23T15:21:47;65212.09;;;-144.87;100.00
21902;BME280;11115;46.038;14.612;2023-01-23T15:24:18;65212.09;;;-144.87;100.00
21902;BME280;11115;46.038;14.612;2023-01-23T15:29:24;65212.09;;;-144.87;100.00
21902;BME280;11115;46.038;14.612;2023-01-23T15:31:56;65212.09;;;-144.87;100.00
21902;BME280;11115;46.038;14.612;2023-01-23T15:34:31;65212.09;;;-144.87;100.00
21902;BME280;11115;46.038;14.612;2023-01-23T15:39:50;65212.09;;;-144.87;100.00
21902;BME280;11115;46.038;14.612;2023-01-23T15:42:32;65212.09;;;-144.87;100.00
21902;BME280;11115;46.038;14.612;2023-01-23T15:45:01;65212.09;;;-144.87;100.00
21902;BME280;11115;46.038;14.612;2023-01-23T15:47:30;65212.09;;;-144.87;100.00
21902;BME280;11115;46.038;14.612;2023-01-23T15:49:58;65212.09;;;-144.87;100.00
21902;BME280;11115;46.038;14.612;2023-01-23T15:52:44;65212.09;;;-144.87;100.00
21902;BME280;11115;46.038;14.612;2023-01-23T15:55:13;65212.09;;;-144.87;100.00
21902;BME280;11115;46.038;14.612;2023-01-23T15:57:41;65212.09;;;-144.87;100.00
21902;BME280;11115;46.038;14.612;2023-01-23T16:00:17;65212.09;;;-144.87;100.00
21902;BME280;11115;46.038;14.612;2023-01-23T16:02:46;65212.09;;;-144.87;100.00
21902;BME280;11115;46.038;14.612;2023-01-23T16:05:23;65212.09;;;-144.87;100.00
21902;BME280;11115;46.038;14.612;2023-01-23T16:07:52;65212.09;;;-144.87;100.00
21902;BME280;11115;46.038;14.612;2023-01-23T16:12:50;65212.09;;;-144.87;100.00
21902;BME280;11115;46.038;14.612;2023-01-23T16:15:29;65212.09;;;-144.87;100.00
21902;BME280;11115;46.038;14.612;2023-01-23T16:17:58;65212.09;;;-144.87;100.00
21902;BME280;11115;46.038;14.612;2023-01-23T16:20:30;65212.09;;;-144.87;100.00
21902;BME280;11115;46.038;14.612;2023-01-23T16:23:02;65212.09;;;-144.87;100.00
21902;BME280;11115;46.038;14.612;2023-01-23T16:25:41;65212.09;;;-144.87;100.00
21902;BME280;11115;46.038;14.612;2023-01-23T16:28:16;65212.09;;;-144.87;100.00
21902;BME280;11115;46.038;14.612;2023-01-23T16:30:45;65212.09;;;-144.87;100.00
21902;BME280;11115;46.038;14.612;2023-01-23T16:33:13;65212.09;;;-144.87;100.00
21902;BME280;11115;46.038;14.612;2023-01-23T16:35:41;65212.09;;;-144.87;100.00
21902;BME280;11115;46.038;14.612;2023-01-23T16:40:45;65212.09;;;-144.87;100.00
21902;BME280;11115;46.038;14.612;2023-01-23T16:43:13;65212.09;;;-144.87;100.00
21902;BME280;11115;46.038;14.612;2023-01-23T16:45:40;65212.09;;;-144.87;100.00
21902;BME280;11115;46.038;14.612;2023-01-23T16:48:08;65212.09;;;-144.87;100.00
21902;BME280;11115;46.038;14.612;2023-01-23T16:50:49;65212.09;;;-144.87;100.00
21902;BME280;11115;46.038;14.612;2023-01-23T16:53:25;65212.09;;;-144.87;100.00
21902;BME280;11115;46.038;14.612;2023-01-23T16:55:55;65212.09;;;-144.87;100.00
21902;BME280;11115;46.038;14.612;2023-01-23T16:58:27;65212.09;;;-144.87;100.00
21902;BME280;11115;46.038;14.612;2023-01-23T17:01:02;65212.09;;;-144.87;100.00
21902;BME280;11115;46.038;14.612;2023-01-23T17:03:34;65212.09;;;-144.87;100.00
21902;BME280;11115;46.038;14.612;2023-01-23T17:06:03;65212.09;;;-144.87;100.00
21902;BME280;11115;46.038;14.612;2023-01-23T17:08:30;65212.09;;;-144.87;100.00
21902;BME280;11115;46.038;14.612;2023-01-23T17:11:00;65212.09;;;-144.87;100.00
21902;BME280;11115;46.038;14.612;2023-01-23T17:13:29;65212.09;;;-144.87;100.00
21902;BME280;11115;46.038;14.612;2023-01-23T17:15:59;65212.09;;;-144.87;100.00
21902;BME280;11115;46.038;14.612;2023-01-23T17:18:32;65212.09;;;-144.87;100.00
21902;BME280;11115;46.038;14.612;2023-01-23T17:21:02;65212.09;;;-144.87;100.00
21902;BME280;11115;46.038;14.612;2023-01-23T17:23:31;65212.09;;;-144.87;100.00
21902;BME280;11115;46.038;14.612;2023-01-23T17:25:58;65212.09;;;-144.87;100.00
21902;BME280;11115;46.038;14.612;2023-01-23T17:28:27;65212.09;;;-144.87;100.00
21902;BME280;11115;46.038;14.612;2023-01-23T17:30:56;65212.09;;;-144.87;100.00
21902;BME280;11115;46.038;14.612;2023-01-23T17:33:28;65212.09;;;-144.87;100.00
21902;BME280;11115;46.038;14.612;2023-01-23T17:35:59;65212.09;;;-144.87;100.00
21902;BME280;11115;46.038;14.612;2023-01-23T17:38:28;65212.09;;;-144.87;100.00
21902;BME280;11115;46.038;14.612;2023-01-23T17:40:57;65212.09;;;-144.87;100.00
21902;BME280;11115;46.038;14.612;2023-01-23T17:43:25;65212.09;;;-144.87;100.00
21902;BME280;11115;46.038;14.612;2023-01-23T17:45:52;65212.09;;;-144.87;100.00
21902;BME280;11115;46.038;14.612;2023-01-23T17:48:28;65212.09;;;-144.87;100.00
21902;BME280;11115;46.038;14.612;2023-01-23T17:50:58;65212.09;;;-144.87;100.00
21902;BME280;11115;46.038;14.612;2023-01-23T17:53:25;65212.09;;;-144.87;100.00
21902;BME280;11115;46.038;14.612;2023-01-23T17:55:56;65212.09;;;-144.87;100.00
21902;BME280;11115;46.038;14.612;2023-01-23T17:58:23;65212.09;;;-144.87;100.00
21902;BME280;11115;46.038;14.612;2023-01-23T18:00:51;65212.09;;;-144.87;100.00
21902;BME280;11115;46.038;14.612;2023-01-23T18:03:21;65212.09;;;-144.87;100.00
21902;BME280;11115;46.038;14.612;2023-01-23T18:05:50;65212.09;;;-144.87;100.00
21902;BME280;11115;46.038;14.612;2023-01-23T18:08:19;65212.09;;;-144.87;100.00
21902;BME280;11115;46.038;14.612;2023-01-23T18:10:51;65212.09;;;-144.87;100.00
21902;BME280;11115;46.038;14.612;2023-01-23T18:13:39;65212.09;;;-144.87;100.00
21902;BME280;11115;46.038;14.612;2023-01-23T18:16:11;65212.09;;;-144.87;100.00
21902;BME280;11115;46.038;14.612;2023-01-23T18:18:40;65212.09;;;-144.87;100.00
21902;BME280;11115;46.038;14.612;2023-01-23T18:21:14;65212.09;;;-144.87;100.00
21902;BME280;11115;46.038;14.612;2023-01-23T18:23:43;65212.09;;;-144.87;100.00
21902;BME280;11115;46.038;14.612;2023-01-23T18:26:28;65212.09;;;-144.87;100.00
21902;BME280;11115;46.038;14.612;2023-01-23T18:32:48;65212.09;;;-144.87;100.00
21902;BME280;11115;46.038;14.612;2023-01-23T18:38:10;65212.09;;;-144.87;100.00
21902;BME280;11115;46.038;14.612;2023-01-23T18:44:15;65212.09;;;-144.87;100.00
21902;BME280;11115;46.038;14.612;2023-01-23T18:46:45;65212.09;;;-144.87;100.00
21902;BME280;11115;46.038;14.612;2023-01-23T18:49:13;65212.09;;;-144.87;100.00
21902;BME280;11115;46.038;14.612;2023-01-23T18:52:06;65212.09;;;-144.87;100.00
21902;BME280;11115;46.038;14.612;2023-01-23T19:03:43;65212.09;;;-144.87;100.00
21902;BME280;11115;46.038;14.612;2023-01-23T19:06:21;65212.09;;;-144.87;100.00
21902;BME280;11115;46.038;14.612;2023-01-23T19:08:51;65212.09;;;-144.87;100.00
21902;BME280;11115;46.038;14.612;2023-01-23T19:19:58;65212.09;;;-144.87;100.00
21902;BME280;11115;46.038;14.612;2023-01-23T19:22:38;65212.09;;;-144.87;100.00
21902;BME280;11115;46.038;14.612;2023-01-23T19:25:16;65212.09;;;-144.87;100.00
21902;BME280;11115;46.038;14.612;2023-01-23T19:27:47;65212.09;;;-144.87;100.00
21902;BME280;11115;46.038;14.612;2023-01-23T19:30:19;65212.09;;;-144.87;100.00
21902;BME280;11115;46.038;14.612;2023-01-23T19:32:49;65212.09;;;-144.87;100.00
21902;BME280;11115;46.038;14.612;2023-01-23T19:35:17;65212.09;;;-144.87;100.00
21902;BME280;11115;46.038;14.612;2023-01-23T19:37:45;65212.09;;;-144.87;100.00
21902;BME280;11115;46.038;14.612;2023-01-23T19:40:14;65212.09;;;-144.87;100.00
21902;BME280;11115;46.038;14.612;2023-01-23T19:42:43;65212.09;;;-144.87;100.00
21902;BME280;11115;46.038;14.612;2023-01-23T19:45:27;65212.09;;;-144.87;100.00
21902;BME280;11115;46.038;14.612;2023-01-23T19:47:54;65212.09;;;-144.87;100.00
21902;BME280;11115;46.038;14.612;2023-01-23T19:50:22;65212.09;;;-144.87;100.00
21902;BME280;11115;46.038;14.612;2023-01-23T19:52:50;65212.09;;;-144.87;100.00
21902;BME280;11115;46.038;14.612;2023-01-23T19:55:27;65212.09;;;-144.87;100.00
21902;BME280;11115;46.038;14.612;2023-01-23T19:57:56;65212.09;;;-144.87;100.00
21902;BME280;11115;46.038;14.612;2023-01-23T20:00:26;65212.09;;;-144.87;100.00
21902;BME280;11115;46.038;14.612;2023-01-23T20:02:55;65212.09;;;-144.87;100.00
21902;BME280;11115;46.038;14.612;2023-01-23T20:05:23;65212.09;;;-144.87;100.00
21902;BME280;11115;46.038;14.612;2023-01-23T20:07:51;65212.09;;;-144.87;100.00
21902;BME280;11115;46.038;14.612;2023-01-23T20:10:20;65212.09;;;-144.87;100.00
21902;BME280;11115;46.038;14.612;2023-01-23T20:12:49;65212.09;;;-144.87;100.00
21902;BME280;11115;46.038;14.612;2023-01-23T20:15:21;65212.09;;;-144.87;100.00
21902;BME280;11115;46.038;14.612;2023-01-23T20:17:53;65212.09;;;-144.87;100.00
21902;BME280;11115;46.038;14.612;2023-01-23T20:20:21;65212.09;;;-144.87;100.00
21902;BME280;11115;46.038;14.612;2023-01-23T20:22:49;65212.09;;;-144.87;100.00
21902;BME280;11115;46.038;14.612;2023-01-23T20:25:17;65212.09;;;-144.87;100.00
21902;BME280;11115;46.038;14.612;2023-01-23T20:27:45;65212.09;;;-144.87;100.00
21902;BME280;11115;46.038;14.612;2023-01-23T20:30:16;65212.09;;;-144.87;100.00
21902;BME280;11115;46.038;14.612;2023-01-23T20:32:45;65212.09;;;-144.87;100.00
21902;BME280;11115;46.038;14.612;2023-01-23T20:35:13;65212.09;;;-144.87;100.00
21902;BME280;11115;46.038;14.612;2023-01-23T20:37:41;65212.09;;;-144.87;100.00
21902;BME280;11115;46.038;14.612;2023-01-23T20:40:09;65212.09;;;-144.87;100.00
21902;BME280;11115;46.038;14.612;2023-01-23T20:42:38;65212.09;;;-144.87;100.00
21902;BME280;11115;46.038;14.612;2023-01-23T20:45:07;65212.09;;;-144.87;100.00
21902;BME280;11115;46.038;14.612;2023-01-23T20:47:35;65212.09;;;-144.87;100.00
21902;BME280;11115;46.038;14.612;2023-01-23T20:50:03;65212.09;;;-144.87;100.00
21902;BME280;11115;46.038;14.612;2023-01-23T20:52:31;65212.09;;;-144.87;100.00
21902;BME280;11115;46.038;14.612;2023-01-23T20:55:16;65212.09;;;-144.87;100.00
21902;BME280;11115;46.038;14.612;2023-01-23T20:57:44;65212.09;;;-144.87;100.00
21902;BME280;11115;46.038;14.612;2023-01-23T21:00:29;65212.09;;;-144.87;100.00
21902;BME280;11115;46.038;14.612;2023-01-23T21:02:57;65212.09;;;-144.87;100.00
21902;BME280;11115;46.038;14.612;2023-01-23T21:05:25;65212.09;;;-144.87;100.00
21902;BME280;11115;46.038;14.612;2023-01-23T21:07:52;65212.09;;;-144.87;100.00
21902;BME280;11115;46.038;14.612;2023-01-23T21:10:20;65212.09;;;-144.87;100.00
21902;BME280;11115;46.038;14.612;2023-01-23T21:12:48;65212.09;;;-144.87;100.00
21902;BME280;11115;46.038;14.612;2023-01-23T21:15:15;65212.09;;;-144.87;100.00
21902;BME280;11115;46.038;14.612;2023-01-23T21:17:43;65212.09;;;-144.87;100.00
21902;BME280;11115;46.038;14.612;2023-01-23T21:20:11;65212.09;;;-144.87;100.00
21902;BME280;11115;46.038;14.612;2023-01-23T21:22:39;65212.09;;;-144.87;100.00
21902;BME280;11115;46.038;14.612;2023-01-23T21:25:07;65212.09;;;-144.87;100.00
21902;BME280;11115;46.038;14.612;2023-01-23T21:27:34;65212.09;;;-144.87;100.00
21902;BME280;11115;46.038;14.612;2023-01-23T21:30:02;65212.09;;;-144.87;100.00
21902;BME280;11115;46.038;14.612;2023-01-23T21:32:31;65212.09;;;-144.87;100.00
21902;BME280;11115;46.038;14.612;2023-01-23T21:34:59;65212.09;;;-144.87;100.00
21902;BME280;11115;46.038;14.612;2023-01-23T21:37:27;65212.09;;;-144.87;100.00
21902;BME280;11115;46.038;14.612;2023-01-23T21:39:54;65212.09;;;-144.87;100.00
21902;BME280;11115;46.038;14.612;2023-01-23T21:42:22;65212.09;;;-144.87;100.00
21902;BME280;11115;46.038;14.612;2023-01-23T21:44:50;65212.09;;;-144.87;100.00
21902;BME280;11115;46.038;14.612;2023-01-23T21:47:20;65212.09;;;-144.87;100.00
21902;BME280;11115;46.038;14.612;2023-01-23T21:49:49;65212.09;;;-144.87;100.00
21902;BME280;11115;46.038;14.612;2023-01-23T21:52:17;65212.09;;;-144.87;100.00
21902;BME280;11115;46.038;14.612;2023-01-23T21:54:44;65212.09;;;-144.87;100.00
21902;BME280;11115;46.038;14.612;2023-01-23T21:57:12;65212.09;;;-144.87;100.00
21902;BME280;11115;46.038;14.612;2023-01-23T21:59:40;65212.09;;;-144.87;100.00
21902;BME280;11115;46.038;14.612;2023-01-23T22:02:37;65212.09;;;-144.87;100.00
21902;BME280;11115;46.038;14.612;2023-01-23T22:05:04;65212.09;;;-144.87;100.00
21902;BME280;11115;46.038;14.612;2023-01-23T22:07:32;65212.09;;;-144.87;100.00
21902;BME280;11115;46.038;14.612;2023-01-23T22:10:00;65212.09;;;-144.87;100.00
21902;BME280;11115;46.038;14.612;2023-01-23T22:12:27;65212.09;;;-144.87;100.00
21902;BME280;11115;46.038;14.612;2023-01-23T22:14:55;65212.09;;;-144.87;100.00
21902;BME280;11115;46.038;14.612;2023-01-23T22:17:23;65212.09;;;-144.87;100.00
21902;BME280;11115;46.038;14.612;2023-01-23T22:19:51;65212.09;;;-144.87;100.00
21902;BME280;11115;46.038;14.612;2023-01-23T22:22:18;65212.09;;;-144.87;100.00
21902;BME280;11115;46.038;14.612;2023-01-23T22:24:46;65212.09;;;-144.87;100.00
21902;BME280;11115;46.038;14.612;2023-01-23T22:27:14;65212.09;;;-144.87;100.00
21902;BME280;11115;46.038;14.612;2023-01-23T22:29:42;65212.09;;;-144.87;100.00
21902;BME280;11115;46.038;14.612;2023-01-23T22:32:10;65212.09;;;-144.87;100.00
21902;BME280;11115;46.038;14.612;2023-01-23T22:34:37;65212.09;;;-144.87;100.00
21902;BME280;11115;46.038;14.612;2023-01-23T22:37:05;65212.09;;;-144.87;100.00
21902;BME280;11115;46.038;14.612;2023-01-23T22:39:33;65212.09;;;-144.87;100.00
21902;BME280;11115;46.038;14.612;2023-01-23T22:42:00;65212.09;;;-144.87;100.00
21902;BME280;11115;46.038;14.612;2023-01-23T22:44:29;65212.09;;;-144.87;100.00
21902;BME280;11115;46.038;14.612;2023-01-23T22:46:57;65212.09;;;-144.87;100.00
21902;BME280;11115;46.038;14.612;2023-01-23T22:49:25;65212.09;;;-144.87;100.00
21902;BME280;11115;46.038;14.612;2023-01-23T22:51:53;65212.09;;;-144.87;100.00
21902;BME280;11115;46.038;14.612;2023-01-23T22:54:20;65212.09;;;-144.87;100.00
21902;BME280;11115;46.038;14.612;2023-01-23T22:56:48;65212.09;;;-144.87;100.00
21902;BME280;11115;46.038;14.612;2023-01-23T22:59:16;65212.09;;;-144.87;100.00
21902;BME280;11115;46.038;14.612;2023-01-23T23:01:43;65212.09;;;-144.87;100.00
21902;BME280;11115;46.038;14.612;2023-01-23T23:04:11;65212.09;;;-144.87;100.00
21902;BME280;11115;46.038;14.612;2023-01-23T23:06:39;65212.09;;;-144.87;100.00
21902;BME280;11115;46.038;14.612;2023-01-23T23:09:07;65212.09;;;-144.87;100.00
21902;BME280;11115;46.038;14.612;2023-01-23T23:11:35;65212.09;;;-144.87;100.00
21902;BME280;11115;46.038;14.612;2023-01-23T23:14:05;65212.09;;;-144.87;100.00
21902;BME280;11115;46.038;14.612;2023-01-23T23:16:32;65212.09;;;-144.87;100.00
21902;BME280;11115;46.038;14.612;2023-01-23T23:19:01;65212.09;;;-144.87;100.00
21902;BME280;11115;46.038;14.612;2023-01-23T23:21:34;65212.09;;;-144.87;100.00
21902;BME280;11115;46.038;14.612;2023-01-23T23:24:05;65212.09;;;-144.87;100.00
21902;BME280;11115;46.038;14.612;2023-01-23T23:26:33;65212.09;;;-144.87;100.00
21902;BME280;11115;46.038;14.612;2023-01-23T23:29:02;65212.09;;;-144.87;100.00
21902;BME280;11115;46.038;14.612;2023-01-23T23:31:30;65212.09;;;-144.87;100.00
21902;BME280;11115;46.038;14.612;2023-01-23T23:33:58;65212.09;;;-144.87;100.00
21902;BME280;11115;46.038;14.612;2023-01-23T23:36:26;65212.09;;;-144.87;100.00
21902;BME280;11115;46.038;14.612;2023-01-23T23:38:54;65212.09;;;-144.87;100.00
21902;BME280;11115;46.038;14.612;2023-01-23T23:41:22;65212.09;;;-144.87;100.00
21902;BME280;11115;46.038;14.612;2023-01-23T23:43:50;65212.09;;;-144.87;100.00
21902;BME280;11115;46.038;14.612;2023-01-23T23:46:18;65212.09;;;-144.87;100.00
21902;BME280;11115;46.038;14.612;2023-01-23T23:48:45;65212.09;;;-144.87;100.00
21902;BME280;11115;46.038;14.612;2023-01-23T23:51:15;65212.09;;;-144.87;100.00
21902;BME280;11115;46.038;14.612;2023-01-23T23:53:44;65212.09;;;-144.87;100.00
21902;BME280;11115;46.038;14.612;2023-01-23T23:58:48;65212.09;;;-144.87;100.00
